sensor_id;sensor_type;location;lat;lon;timestamp;temperature;humidity
24636;DHT22;12772;49.794;10.024;2023-05-10T00:01:06;18.10;65.80
24636;DHT22;12772;49.794;10.024;2023-05-10T00:05:08;18.00;66.20
24636;DHT22;12772;49.794;10.024;2023-05-10T00:09:10;18.00;67.00
24636;DHT22;12772;49.794;10.024;2023-05-10T00:13:13;18.00;67.30
24636;DHT22;12772;49.794;10.024;2023-05-10T00:17:15;18.00;68.00
24636;DHT22;12772;49.794;10.024;2023-05-10T00:21:17;18.00;68.00
24636;DHT22;12772;49.794;10.024;2023-05-10T00:25:19;18.00;68.20
24636;DHT22;12772;49.794;10.024;2023-05-10T00:29:22;18.00;68.30
24636;DHT22;12772;49.794;10.024;2023-05-10T00:33:24;18.00;68.50
24636;DHT22;12772;49.794;10.024;2023-05-10T00:37:26;18.00;68.50
24636;DHT22;12772;49.794;10.024;2023-05-10T00:41:29;18.00;68.60
24636;DHT22;12772;49.794;10.024;2023-05-10T00:45:33;18.00;68.70
24636;DHT22;12772;49.794;10.024;2023-05-10T00:49:37;18.00;68.90
24636;DHT22;12772;49.794;10.024;2023-05-10T00:53:40;18.10;68.70
24636;DHT22;12772;49.794;10.024;2023-05-10T00:57:42;18.10;68.70
24636;DHT22;12772;49.794;10.024;2023-05-10T01:01:45;18.00;68.50
24636;DHT22;12772;49.794;10.024;2023-05-10T01:05:47;18.00;68.60
24636;DHT22;12772;49.794;10.024;2023-05-10T01:09:49;18.00;68.40
24636;DHT22;12772;49.794;10.024;2023-05-10T01:13:55;17.90;68.10
24636;DHT22;12772;49.794;10.024;2023-05-10T01:17:58;17.90;68.10
24636;DHT22;12772;49.794;10.024;2023-05-10T01:26:29;17.80;68.00
24636;DHT22;12772;49.794;10.024;2023-05-10T01:35:36;17.70;68.40
24636;DHT22;12772;49.794;10.024;2023-05-10T01:39:49;17.70;68.70
24636;DHT22;12772;49.794;10.024;2023-05-10T01:48:11;17.60;69.70
24636;DHT22;12772;49.794;10.024;2023-05-10T01:52:18;17.50;70.10
24636;DHT22;12772;49.794;10.024;2023-05-10T01:56:24;17.40;70.60
24636;DHT22;12772;49.794;10.024;2023-05-10T02:00:28;17.40;71.00
24636;DHT22;12772;49.794;10.024;2023-05-10T02:04:35;17.40;71.50
24636;DHT22;12772;49.794;10.024;2023-05-10T02:08:39;17.40;71.40
24636;DHT22;12772;49.794;10.024;2023-05-10T02:12:44;17.40;70.70
24636;DHT22;12772;49.794;10.024;2023-05-10T02:16:48;17.30;69.90
24636;DHT22;12772;49.794;10.024;2023-05-10T02:20:53;17.30;69.50
24636;DHT22;12772;49.794;10.024;2023-05-10T02:24:58;17.20;69.80
24636;DHT22;12772;49.794;10.024;2023-05-10T02:29:02;17.20;69.50
24636;DHT22;12772;49.794;10.024;2023-05-10T02:33:05;17.20;69.50
24636;DHT22;12772;49.794;10.024;2023-05-10T02:37:08;17.20;69.50
24636;DHT22;12772;49.794;10.024;2023-05-10T02:41:12;17.20;69.50
24636;DHT22;12772;49.794;10.024;2023-05-10T02:45:19;17.20;69.00
24636;DHT22;12772;49.794;10.024;2023-05-10T02:49:22;17.10;68.30
24636;DHT22;12772;49.794;10.024;2023-05-10T02:53:31;17.00;67.10
24636;DHT22;12772;49.794;10.024;2023-05-10T02:57:34;16.90;66.80
24636;DHT22;12772;49.794;10.024;2023-05-10T03:01:36;16.80;66.90
24636;DHT22;12772;49.794;10.024;2023-05-10T03:05:39;16.80;67.30
24636;DHT22;12772;49.794;10.024;2023-05-10T03:09:41;16.70;67.40
24636;DHT22;12772;49.794;10.024;2023-05-10T03:14:20;16.70;67.20
24636;DHT22;12772;49.794;10.024;2023-05-10T03:18:29;16.70;67.00
24636;DHT22;12772;49.794;10.024;2023-05-10T03:22:44;16.60;66.80
24636;DHT22;12772;49.794;10.024;2023-05-10T03:26:47;16.60;66.50
24636;DHT22;12772;49.794;10.024;2023-05-10T03:30:52;16.60;66.40
24636;DHT22;12772;49.794;10.024;2023-05-10T03:34:54;16.50;66.50
24636;DHT22;12772;49.794;10.024;2023-05-10T03:38:57;16.40;66.60
24636;DHT22;12772;49.794;10.024;2023-05-10T03:42:59;16.40;67.00
24636;DHT22;12772;49.794;10.024;2023-05-10T03:47:01;16.40;66.80
24636;DHT22;12772;49.794;10.024;2023-05-10T03:51:03;16.40;67.00
24636;DHT22;12772;49.794;10.024;2023-05-10T03:55:05;16.40;66.90
24636;DHT22;12772;49.794;10.024;2023-05-10T03:59:08;16.40;66.80
24636;DHT22;12772;49.794;10.024;2023-05-10T04:03:10;16.40;66.70
24636;DHT22;12772;49.794;10.024;2023-05-10T04:07:12;16.20;67.50
24636;DHT22;12772;49.794;10.024;2023-05-10T04:11:14;16.30;67.40
24636;DHT22;12772;49.794;10.024;2023-05-10T04:15:16;16.30;67.20
24636;DHT22;12772;49.794;10.024;2023-05-10T04:19:18;16.30;67.10
24636;DHT22;12772;49.794;10.024;2023-05-10T04:23:20;16.40;67.00
24636;DHT22;12772;49.794;10.024;2023-05-10T04:27:22;16.40;67.00
24636;DHT22;12772;49.794;10.024;2023-05-10T04:31:24;16.40;66.60
24636;DHT22;12772;49.794;10.024;2023-05-10T04:35:27;16.30;66.70
24636;DHT22;12772;49.794;10.024;2023-05-10T04:39:30;16.30;66.90
24636;DHT22;12772;49.794;10.024;2023-05-10T04:43:33;16.30;67.20
24636;DHT22;12772;49.794;10.024;2023-05-10T04:47:35;16.30;67.10
24636;DHT22;12772;49.794;10.024;2023-05-10T04:51:37;16.30;67.00
24636;DHT22;12772;49.794;10.024;2023-05-10T04:55:39;16.30;67.00
24636;DHT22;12772;49.794;10.024;2023-05-10T04:59:41;16.30;67.20
24636;DHT22;12772;49.794;10.024;2023-05-10T05:03:44;16.30;67.20
24636;DHT22;12772;49.794;10.024;2023-05-10T05:07:46;16.40;66.90
24636;DHT22;12772;49.794;10.024;2023-05-10T05:11:48;16.40;67.10
24636;DHT22;12772;49.794;10.024;2023-05-10T05:15:50;16.40;67.20
24636;DHT22;12772;49.794;10.024;2023-05-10T05:19:52;16.50;67.00
24636;DHT22;12772;49.794;10.024;2023-05-10T05:23:54;16.50;66.80
24636;DHT22;12772;49.794;10.024;2023-05-10T05:27:57;16.50;68.50
24636;DHT22;12772;49.794;10.024;2023-05-10T05:32:00;16.60;69.60
24636;DHT22;12772;49.794;10.024;2023-05-10T05:36:03;16.60;69.30
24636;DHT22;12772;49.794;10.024;2023-05-10T05:40:06;16.60;68.70
24636;DHT22;12772;49.794;10.024;2023-05-10T05:44:08;16.60;68.10
24636;DHT22;12772;49.794;10.024;2023-05-10T05:48:10;16.70;67.60
24636;DHT22;12772;49.794;10.024;2023-05-10T05:52:13;16.80;67.10
24636;DHT22;12772;49.794;10.024;2023-05-10T05:56:15;16.80;66.70
24636;DHT22;12772;49.794;10.024;2023-05-10T06:00:18;16.70;66.40
24636;DHT22;12772;49.794;10.024;2023-05-10T06:04:20;16.70;66.30
24636;DHT22;12772;49.794;10.024;2023-05-10T06:08:22;16.70;66.40
24636;DHT22;12772;49.794;10.024;2023-05-10T06:12:24;16.70;66.60
24636;DHT22;12772;49.794;10.024;2023-05-10T06:16:26;16.70;66.40
24636;DHT22;12772;49.794;10.024;2023-05-10T06:20:28;16.80;66.20
24636;DHT22;12772;49.794;10.024;2023-05-10T06:24:32;16.80;65.90
24636;DHT22;12772;49.794;10.024;2023-05-10T06:28:34;16.80;66.00
24636;DHT22;12772;49.794;10.024;2023-05-10T06:32:36;16.80;66.00
24636;DHT22;12772;49.794;10.024;2023-05-10T06:36:38;16.80;66.10
24636;DHT22;12772;49.794;10.024;2023-05-10T06:40:43;16.90;66.20
24636;DHT22;12772;49.794;10.024;2023-05-10T06:44:45;16.90;66.00
24636;DHT22;12772;49.794;10.024;2023-05-10T06:48:47;17.00;65.50
24636;DHT22;12772;49.794;10.024;2023-05-10T06:52:49;17.00;65.10
24636;DHT22;12772;49.794;10.024;2023-05-10T06:56:51;17.00;65.00
24636;DHT22;12772;49.794;10.024;2023-05-10T07:00:53;17.00;64.70
24636;DHT22;12772;49.794;10.024;2023-05-10T07:04:55;17.10;64.30
24636;DHT22;12772;49.794;10.024;2023-05-10T07:08:58;17.10;64.00
24636;DHT22;12772;49.794;10.024;2023-05-10T07:13:02;17.10;63.90
24636;DHT22;12772;49.794;10.024;2023-05-10T07:17:04;17.10;63.40
24636;DHT22;12772;49.794;10.024;2023-05-10T07:21:07;17.10;63.40
24636;DHT22;12772;49.794;10.024;2023-05-10T07:25:09;17.20;62.90
24636;DHT22;12772;49.794;10.024;2023-05-10T07:29:11;17.20;62.80
24636;DHT22;12772;49.794;10.024;2023-05-10T07:33:14;17.20;62.70
24636;DHT22;12772;49.794;10.024;2023-05-10T07:37:16;17.30;63.30
24636;DHT22;12772;49.794;10.024;2023-05-10T07:41:18;17.30;62.40
24636;DHT22;12772;49.794;10.024;2023-05-10T07:45:22;17.30;61.90
24636;DHT22;12772;49.794;10.024;2023-05-10T07:49:24;17.40;61.40
24636;DHT22;12772;49.794;10.024;2023-05-10T07:53:26;17.30;61.60
24636;DHT22;12772;49.794;10.024;2023-05-10T07:57:28;17.40;61.40
24636;DHT22;12772;49.794;10.024;2023-05-10T08:01:33;17.40;60.90
24636;DHT22;12772;49.794;10.024;2023-05-10T08:05:35;17.30;60.90
24636;DHT22;12772;49.794;10.024;2023-05-10T08:09:37;17.40;60.50
24636;DHT22;12772;49.794;10.024;2023-05-10T08:13:39;17.40;60.50
24636;DHT22;12772;49.794;10.024;2023-05-10T08:17:41;17.40;60.50
24636;DHT22;12772;49.794;10.024;2023-05-10T08:21:43;17.50;60.20
24636;DHT22;12772;49.794;10.024;2023-05-10T08:25:45;17.60;59.50
24636;DHT22;12772;49.794;10.024;2023-05-10T08:29:47;17.60;58.40
24636;DHT22;12772;49.794;10.024;2023-05-10T08:33:49;17.60;58.70
24636;DHT22;12772;49.794;10.024;2023-05-10T08:37:52;17.70;58.30
24636;DHT22;12772;49.794;10.024;2023-05-10T08:41:54;17.80;58.10
24636;DHT22;12772;49.794;10.024;2023-05-10T08:46:00;17.90;59.10
24636;DHT22;12772;49.794;10.024;2023-05-10T08:50:03;17.90;57.00
24636;DHT22;12772;49.794;10.024;2023-05-10T08:54:06;18.10;55.60
24636;DHT22;12772;49.794;10.024;2023-05-10T08:58:09;18.10;54.70
24636;DHT22;12772;49.794;10.024;2023-05-10T09:02:13;18.20;54.70
24636;DHT22;12772;49.794;10.024;2023-05-10T09:06:15;18.30;54.20
24636;DHT22;12772;49.794;10.024;2023-05-10T09:10:18;18.20;54.40
24636;DHT22;12772;49.794;10.024;2023-05-10T09:14:20;18.30;53.70
24636;DHT22;12772;49.794;10.024;2023-05-10T09:18:24;18.20;54.30
24636;DHT22;12772;49.794;10.024;2023-05-10T09:22:26;18.20;54.10
24636;DHT22;12772;49.794;10.024;2023-05-10T09:26:28;18.20;54.20
24636;DHT22;12772;49.794;10.024;2023-05-10T09:30:31;18.10;54.50
24636;DHT22;12772;49.794;10.024;2023-05-10T09:34:33;18.10;54.60
24636;DHT22;12772;49.794;10.024;2023-05-10T09:38:48;18.10;54.50
24636;DHT22;12772;49.794;10.024;2023-05-10T09:46:56;18.10;54.30
24636;DHT22;12772;49.794;10.024;2023-05-10T09:50:59;18.10;54.70
24636;DHT22;12772;49.794;10.024;2023-05-10T09:55:01;18.10;54.10
24636;DHT22;12772;49.794;10.024;2023-05-10T09:59:08;18.20;53.70
24636;DHT22;12772;49.794;10.024;2023-05-10T10:03:18;18.20;53.00
24636;DHT22;12772;49.794;10.024;2023-05-10T10:07:23;18.30;53.10
24636;DHT22;12772;49.794;10.024;2023-05-10T10:11:26;18.50;53.30
24636;DHT22;12772;49.794;10.024;2023-05-10T10:15:28;18.60;53.40
24636;DHT22;12772;49.794;10.024;2023-05-10T10:19:33;18.80;53.70
24636;DHT22;12772;49.794;10.024;2023-05-10T10:23:35;19.00;52.80
24636;DHT22;12772;49.794;10.024;2023-05-10T10:36:05;19.40;50.80
24636;DHT22;12772;49.794;10.024;2023-05-10T10:48:34;19.80;48.70
24636;DHT22;12772;49.794;10.024;2023-05-10T10:52:40;19.80;48.00
24636;DHT22;12772;49.794;10.024;2023-05-10T10:56:44;19.80;48.00
24636;DHT22;12772;49.794;10.024;2023-05-10T11:00:46;19.90;48.10
24636;DHT22;12772;49.794;10.024;2023-05-10T11:04:48;19.90;46.70
24636;DHT22;12772;49.794;10.024;2023-05-10T11:08:51;19.90;46.70
24636;DHT22;12772;49.794;10.024;2023-05-10T11:13:02;20.00;45.80
24636;DHT22;12772;49.794;10.024;2023-05-10T11:17:24;20.00;46.50
24636;DHT22;12772;49.794;10.024;2023-05-10T11:21:31;20.20;46.80
24636;DHT22;12772;49.794;10.024;2023-05-10T11:25:34;20.30;45.90
24636;DHT22;12772;49.794;10.024;2023-05-10T11:29:36;20.40;45.00
24636;DHT22;12772;49.794;10.024;2023-05-10T11:37:48;20.60;44.30
24636;DHT22;12772;49.794;10.024;2023-05-10T11:41:50;20.60;43.40
24636;DHT22;12772;49.794;10.024;2023-05-10T11:45:52;20.60;43.60
24636;DHT22;12772;49.794;10.024;2023-05-10T11:49:54;20.60;42.90
24636;DHT22;12772;49.794;10.024;2023-05-10T11:53:57;20.60;41.90
24636;DHT22;12772;49.794;10.024;2023-05-10T11:58:01;20.60;41.90
24636;DHT22;12772;49.794;10.024;2023-05-10T12:02:03;20.60;42.30
24636;DHT22;12772;49.794;10.024;2023-05-10T12:06:07;20.60;43.00
24636;DHT22;12772;49.794;10.024;2023-05-10T12:10:13;20.70;42.40
24636;DHT22;12772;49.794;10.024;2023-05-10T12:14:15;20.70;42.00
24636;DHT22;12772;49.794;10.024;2023-05-10T12:18:23;20.70;42.00
24636;DHT22;12772;49.794;10.024;2023-05-10T12:22:25;20.70;42.50
24636;DHT22;12772;49.794;10.024;2023-05-10T12:26:28;20.70;43.30
24636;DHT22;12772;49.794;10.024;2023-05-10T12:30:32;20.80;42.40
24636;DHT22;12772;49.794;10.024;2023-05-10T12:34:35;20.80;42.10
24636;DHT22;12772;49.794;10.024;2023-05-10T12:42:43;21.10;42.40
24636;DHT22;12772;49.794;10.024;2023-05-10T12:46:46;21.10;42.40
24636;DHT22;12772;49.794;10.024;2023-05-10T12:50:48;21.10;42.30
24636;DHT22;12772;49.794;10.024;2023-05-10T12:54:50;21.00;42.40
24636;DHT22;12772;49.794;10.024;2023-05-10T12:58:52;21.00;42.40
24636;DHT22;12772;49.794;10.024;2023-05-10T13:02:54;20.80;42.10
24636;DHT22;12772;49.794;10.024;2023-05-10T13:06:56;20.50;41.80
24636;DHT22;12772;49.794;10.024;2023-05-10T13:11:02;20.10;43.70
24636;DHT22;12772;49.794;10.024;2023-05-10T13:15:05;19.60;45.80
24636;DHT22;12772;49.794;10.024;2023-05-10T13:19:07;19.20;48.30
24636;DHT22;12772;49.794;10.024;2023-05-10T13:23:10;18.90;51.10
24636;DHT22;12772;49.794;10.024;2023-05-10T13:27:12;18.40;53.20
24636;DHT22;12772;49.794;10.024;2023-05-10T13:31:14;18.10;55.30
24636;DHT22;12772;49.794;10.024;2023-05-10T13:35:16;17.90;56.30
24636;DHT22;12772;49.794;10.024;2023-05-10T13:39:18;17.70;57.30
24636;DHT22;12772;49.794;10.024;2023-05-10T13:43:20;17.50;58.60
24636;DHT22;12772;49.794;10.024;2023-05-10T13:47:22;17.40;59.90
24636;DHT22;12772;49.794;10.024;2023-05-10T13:51:24;17.40;61.50
24636;DHT22;12772;49.794;10.024;2023-05-10T13:55:26;17.40;62.00
24636;DHT22;12772;49.794;10.024;2023-05-10T13:59:29;17.40;62.20
24636;DHT22;12772;49.794;10.024;2023-05-10T14:03:32;17.40;61.90
24636;DHT22;12772;49.794;10.024;2023-05-10T14:07:34;17.40;62.10
24636;DHT22;12772;49.794;10.024;2023-05-10T14:11:36;17.50;62.60
24636;DHT22;12772;49.794;10.024;2023-05-10T14:15:42;17.50;62.70
24636;DHT22;12772;49.794;10.024;2023-05-10T14:19:44;17.50;63.30
24636;DHT22;12772;49.794;10.024;2023-05-10T14:23:46;17.50;63.30
24636;DHT22;12772;49.794;10.024;2023-05-10T14:27:48;17.60;63.80
24636;DHT22;12772;49.794;10.024;2023-05-10T14:31:50;17.60;63.80
24636;DHT22;12772;49.794;10.024;2023-05-10T14:35:53;17.60;63.80
24636;DHT22;12772;49.794;10.024;2023-05-10T14:40:00;17.70;64.10
24636;DHT22;12772;49.794;10.024;2023-05-10T14:44:02;17.60;63.60
24636;DHT22;12772;49.794;10.024;2023-05-10T14:48:04;17.70;63.90
24636;DHT22;12772;49.794;10.024;2023-05-10T14:52:06;17.70;63.70
24636;DHT22;12772;49.794;10.024;2023-05-10T14:56:08;17.80;63.40
24636;DHT22;12772;49.794;10.024;2023-05-10T15:00:11;17.80;63.00
24636;DHT22;12772;49.794;10.024;2023-05-10T15:04:13;17.80;62.80
24636;DHT22;12772;49.794;10.024;2023-05-10T15:08:17;17.90;62.60
24636;DHT22;12772;49.794;10.024;2023-05-10T15:12:19;17.90;62.00
24636;DHT22;12772;49.794;10.024;2023-05-10T15:16:21;17.90;62.10
24636;DHT22;12772;49.794;10.024;2023-05-10T15:20:23;18.00;61.90
24636;DHT22;12772;49.794;10.024;2023-05-10T15:24:25;18.10;62.00
24636;DHT22;12772;49.794;10.024;2023-05-10T15:28:28;18.10;61.90
24636;DHT22;12772;49.794;10.024;2023-05-10T15:32:30;18.10;61.90
24636;DHT22;12772;49.794;10.024;2023-05-10T15:36:32;18.20;62.00
24636;DHT22;12772;49.794;10.024;2023-05-10T15:40:34;18.20;62.10
24636;DHT22;12772;49.794;10.024;2023-05-10T15:44:36;18.20;62.40
24636;DHT22;12772;49.794;10.024;2023-05-10T15:48:39;18.20;62.70
24636;DHT22;12772;49.794;10.024;2023-05-10T15:52:42;18.30;62.80
24636;DHT22;12772;49.794;10.024;2023-05-10T15:56:44;18.30;62.60
24636;DHT22;12772;49.794;10.024;2023-05-10T16:00:46;18.20;63.20
24636;DHT22;12772;49.794;10.024;2023-05-10T16:04:49;18.30;63.60
24636;DHT22;12772;49.794;10.024;2023-05-10T16:08:51;18.30;63.20
24636;DHT22;12772;49.794;10.024;2023-05-10T16:12:53;18.30;63.30
24636;DHT22;12772;49.794;10.024;2023-05-10T16:16:55;18.40;62.90
24636;DHT22;12772;49.794;10.024;2023-05-10T16:20:58;18.50;62.60
24636;DHT22;12772;49.794;10.024;2023-05-10T16:25:00;18.50;62.20
24636;DHT22;12772;49.794;10.024;2023-05-10T16:29:02;18.50;62.30
24636;DHT22;12772;49.794;10.024;2023-05-10T16:33:04;18.60;62.00
24636;DHT22;12772;49.794;10.024;2023-05-10T16:37:06;18.60;62.20
24636;DHT22;12772;49.794;10.024;2023-05-10T16:41:08;18.60;61.90
24636;DHT22;12772;49.794;10.024;2023-05-10T16:45:11;18.70;62.00
24636;DHT22;12772;49.794;10.024;2023-05-10T16:49:16;18.70;61.30
24636;DHT22;12772;49.794;10.024;2023-05-10T16:53:18;18.70;60.90
24636;DHT22;12772;49.794;10.024;2023-05-10T16:57:21;18.70;60.90
24636;DHT22;12772;49.794;10.024;2023-05-10T17:01:23;18.70;60.60
24636;DHT22;12772;49.794;10.024;2023-05-10T17:05:25;18.70;60.00
24636;DHT22;12772;49.794;10.024;2023-05-10T17:09:27;18.80;59.90
24636;DHT22;12772;49.794;10.024;2023-05-10T17:13:29;18.80;59.50
24636;DHT22;12772;49.794;10.024;2023-05-10T17:17:32;18.70;59.40
24636;DHT22;12772;49.794;10.024;2023-05-10T17:21:34;18.70;59.30
24636;DHT22;12772;49.794;10.024;2023-05-10T17:25:36;18.70;58.90
24636;DHT22;12772;49.794;10.024;2023-05-10T17:29:38;18.70;58.60
24636;DHT22;12772;49.794;10.024;2023-05-10T17:33:40;18.70;58.40
24636;DHT22;12772;49.794;10.024;2023-05-10T17:37:42;18.60;58.20
24636;DHT22;12772;49.794;10.024;2023-05-10T17:41:44;18.60;58.00
24636;DHT22;12772;49.794;10.024;2023-05-10T17:45:48;18.60;57.70
24636;DHT22;12772;49.794;10.024;2023-05-10T17:49:50;18.50;57.40
24636;DHT22;12772;49.794;10.024;2023-05-10T17:53:52;18.50;56.90
24636;DHT22;12772;49.794;10.024;2023-05-10T17:57:54;18.50;56.60
24636;DHT22;12772;49.794;10.024;2023-05-10T18:01:58;18.50;56.80
24636;DHT22;12772;49.794;10.024;2023-05-10T18:06:04;18.40;56.80
24636;DHT22;12772;49.794;10.024;2023-05-10T18:10:07;18.40;56.80
24636;DHT22;12772;49.794;10.024;2023-05-10T18:14:09;18.30;56.40
24636;DHT22;12772;49.794;10.024;2023-05-10T18:18:11;18.30;56.60
24636;DHT22;12772;49.794;10.024;2023-05-10T18:22:13;18.30;56.20
24636;DHT22;12772;49.794;10.024;2023-05-10T18:26:15;18.30;56.30
24636;DHT22;12772;49.794;10.024;2023-05-10T18:30:18;18.30;56.20
24636;DHT22;12772;49.794;10.024;2023-05-10T18:34:20;18.30;56.80
24636;DHT22;12772;49.794;10.024;2023-05-10T18:38:22;18.30;57.20
24636;DHT22;12772;49.794;10.024;2023-05-10T18:42:24;18.40;57.60
24636;DHT22;12772;49.794;10.024;2023-05-10T18:46:26;18.30;57.40
24636;DHT22;12772;49.794;10.024;2023-05-10T18:50:28;18.40;57.60
24636;DHT22;12772;49.794;10.024;2023-05-10T18:54:30;18.40;57.40
24636;DHT22;12772;49.794;10.024;2023-05-10T18:58:32;18.40;57.20
24636;DHT22;12772;49.794;10.024;2023-05-10T19:02:36;18.40;57.20
24636;DHT22;12772;49.794;10.024;2023-05-10T19:06:38;18.30;56.90
24636;DHT22;12772;49.794;10.024;2023-05-10T19:10:41;18.30;56.90
24636;DHT22;12772;49.794;10.024;2023-05-10T19:14:43;18.30;57.00
24636;DHT22;12772;49.794;10.024;2023-05-10T19:18:45;18.20;55.70
24636;DHT22;12772;49.794;10.024;2023-05-10T19:22:47;18.20;55.00
24636;DHT22;12772;49.794;10.024;2023-05-10T19:26:50;18.10;54.50
24636;DHT22;12772;49.794;10.024;2023-05-10T19:30:52;18.00;53.20
24636;DHT22;12772;49.794;10.024;2023-05-10T19:34:54;17.90;53.20
24636;DHT22;12772;49.794;10.024;2023-05-10T19:38:56;17.90;53.90
24636;DHT22;12772;49.794;10.024;2023-05-10T19:42:58;17.90;54.00
24636;DHT22;12772;49.794;10.024;2023-05-10T19:47:00;17.90;54.40
24636;DHT22;12772;49.794;10.024;2023-05-10T19:51:04;17.80;54.50
24636;DHT22;12772;49.794;10.024;2023-05-10T19:55:07;17.80;54.70
24636;DHT22;12772;49.794;10.024;2023-05-10T19:59:09;17.80;54.80
24636;DHT22;12772;49.794;10.024;2023-05-10T20:03:11;17.80;54.80
24636;DHT22;12772;49.794;10.024;2023-05-10T20:07:13;17.80;54.80
24636;DHT22;12772;49.794;10.024;2023-05-10T20:11:15;17.80;54.10
24636;DHT22;12772;49.794;10.024;2023-05-10T20:15:19;17.80;53.80
24636;DHT22;12772;49.794;10.024;2023-05-10T20:19:21;17.80;53.70
24636;DHT22;12772;49.794;10.024;2023-05-10T20:23:23;17.80;53.80
24636;DHT22;12772;49.794;10.024;2023-05-10T20:27:25;17.70;53.50
24636;DHT22;12772;49.794;10.024;2023-05-10T20:31:27;17.70;53.10
24636;DHT22;12772;49.794;10.024;2023-05-10T20:35:30;17.70;53.00
24636;DHT22;12772;49.794;10.024;2023-05-10T20:39:32;17.70;52.40
24636;DHT22;12772;49.794;10.024;2023-05-10T20:43:34;17.60;52.30
24636;DHT22;12772;49.794;10.024;2023-05-10T20:47:37;17.60;52.30
24636;DHT22;12772;49.794;10.024;2023-05-10T20:51:39;17.50;52.20
24636;DHT22;12772;49.794;10.024;2023-05-10T20:55:41;17.50;52.20
24636;DHT22;12772;49.794;10.024;2023-05-10T20:59:43;17.50;52.20
24636;DHT22;12772;49.794;10.024;2023-05-10T21:03:45;17.40;52.10
24636;DHT22;12772;49.794;10.024;2023-05-10T21:07:47;17.40;52.10
24636;DHT22;12772;49.794;10.024;2023-05-10T21:11:49;17.40;52.10
24636;DHT22;12772;49.794;10.024;2023-05-10T21:15:51;17.30;52.00
24636;DHT22;12772;49.794;10.024;2023-05-10T21:19:53;17.30;52.00
24636;DHT22;12772;49.794;10.024;2023-05-10T21:23:55;17.30;52.00
24636;DHT22;12772;49.794;10.024;2023-05-10T21:27:57;17.30;52.00
24636;DHT22;12772;49.794;10.024;2023-05-10T21:32:00;17.30;52.00
24636;DHT22;12772;49.794;10.024;2023-05-10T21:36:02;17.20;51.90
24636;DHT22;12772;49.794;10.024;2023-05-10T21:40:04;17.10;51.80
24636;DHT22;12772;49.794;10.024;2023-05-10T21:44:06;17.10;51.80
24636;DHT22;12772;49.794;10.024;2023-05-10T21:48:09;17.00;51.60
24636;DHT22;12772;49.794;10.024;2023-05-10T21:52:11;16.90;51.50
24636;DHT22;12772;49.794;10.024;2023-05-10T21:56:13;16.90;51.50
24636;DHT22;12772;49.794;10.024;2023-05-10T22:00:15;16.80;51.40
24636;DHT22;12772;49.794;10.024;2023-05-10T22:04:18;16.80;51.50
24636;DHT22;12772;49.794;10.024;2023-05-10T22:08:20;16.70;51.30
24636;DHT22;12772;49.794;10.024;2023-05-10T22:12:22;16.70;51.30
24636;DHT22;12772;49.794;10.024;2023-05-10T22:16:24;16.70;52.00
24636;DHT22;12772;49.794;10.024;2023-05-10T22:20:26;16.70;52.00
24636;DHT22;12772;49.794;10.024;2023-05-10T22:24:29;16.60;52.00
24636;DHT22;12772;49.794;10.024;2023-05-10T22:28:31;16.70;52.10
24636;DHT22;12772;49.794;10.024;2023-05-10T22:32:33;16.70;52.00
24636;DHT22;12772;49.794;10.024;2023-05-10T22:36:35;16.60;52.00
24636;DHT22;12772;49.794;10.024;2023-05-10T22:40:38;16.60;51.90
24636;DHT22;12772;49.794;10.024;2023-05-10T22:44:40;16.60;51.80
24636;DHT22;12772;49.794;10.024;2023-05-10T22:48:42;16.60;51.70
24636;DHT22;12772;49.794;10.024;2023-05-10T22:52:44;16.50;51.70
24636;DHT22;12772;49.794;10.024;2023-05-10T22:56:46;16.50;51.80
24636;DHT22;12772;49.794;10.024;2023-05-10T23:00:48;16.40;51.90
24636;DHT22;12772;49.794;10.024;2023-05-10T23:04:50;16.40;52.00
24636;DHT22;12772;49.794;10.024;2023-05-10T23:08:53;16.40;52.20
24636;DHT22;12772;49.794;10.024;2023-05-10T23:12:55;16.40;52.40
24636;DHT22;12772;49.794;10.024;2023-05-10T23:16:57;16.30;52.70
24636;DHT22;12772;49.794;10.024;2023-05-10T23:20:59;16.30;52.80
24636;DHT22;12772;49.794;10.024;2023-05-10T23:25:01;16.30;52.80
24636;DHT22;12772;49.794;10.024;2023-05-10T23:29:03;16.30;52.90
24636;DHT22;12772;49.794;10.024;2023-05-10T23:33:05;16.20;52.90
24636;DHT22;12772;49.794;10.024;2023-05-10T23:37:08;16.20;53.00
24636;DHT22;12772;49.794;10.024;2023-05-10T23:41:10;16.20;53.00
24636;DHT22;12772;49.794;10.024;2023-05-10T23:45:12;16.20;53.20
24636;DHT22;12772;49.794;10.024;2023-05-10T23:49:14;16.10;53.10
24636;DHT22;12772;49.794;10.024;2023-05-10T23:53:17;16.10;53.30
24636;DHT22;12772;49.794;10.024;2023-05-10T23:57:19;16.10;53.40
